createdAt,value
2023-04-28T03:58:23.854Z,0.00
2023-04-28T03:59:23.802Z,0.00
2023-04-28T04:00:23.788Z,0.00
2023-04-28T04:01:25.032Z,0.00
2023-04-28T04:02:23.859Z,0.00
2023-04-28T04:03:23.898Z,0.00
2023-04-28T04:04:24.472Z,0.00
2023-04-28T04:05:23.772Z,0.00
2023-04-28T04:06:23.736Z,0.00
2023-04-28T04:07:23.746Z,0.00
2023-04-28T04:08:23.736Z,0.00
2023-04-28T04:09:23.757Z,0.00
2023-04-28T04:10:23.723Z,0.00
2023-04-28T04:11:23.720Z,0.00
2023-04-28T04:12:23.710Z,0.00
2023-04-28T04:13:23.710Z,0.00
2023-04-28T04:14:23.717Z,0.00
2023-04-28T04:15:23.700Z,0.00
2023-04-28T04:16:23.784Z,0.00
2023-04-28T04:17:23.710Z,0.00
2023-04-28T04:18:23.698Z,0.00
2023-04-28T04:19:23.673Z,5.63
2023-04-28T04:20:23.666Z,5.63
2023-04-28T04:21:23.697Z,5.63
2023-04-28T04:22:23.676Z,5.63
2023-04-28T04:23:23.690Z,5.63
2023-04-28T04:24:23.692Z,5.63
2023-04-28T04:25:23.643Z,5.63
2023-04-28T04:26:23.678Z,5.63
2023-04-28T04:27:23.661Z,5.63
2023-04-28T04:28:23.628Z,5.63
2023-04-28T04:29:23.669Z,5.63
2023-04-28T04:30:23.653Z,5.63
2023-04-28T04:31:24.122Z,5.63
2023-04-28T04:32:23.657Z,11.25
2023-04-28T04:33:23.609Z,11.25
2023-04-28T04:34:23.615Z,11.25
2023-04-28T04:35:23.606Z,11.25
2023-04-28T04:36:23.623Z,11.25
2023-04-28T04:37:23.609Z,11.25
2023-04-28T04:38:23.613Z,11.25
2023-04-28T04:39:23.626Z,11.25
2023-04-28T04:40:23.588Z,11.25
2023-04-28T04:41:23.614Z,11.25
2023-04-28T04:42:25.354Z,11.25
2023-04-28T04:43:23.570Z,11.25
2023-04-28T04:44:23.592Z,11.25
2023-04-28T04:45:23.574Z,11.25
2023-04-28T04:46:23.635Z,11.25
2023-04-28T04:47:23.660Z,11.25
2023-04-28T04:48:23.595Z,16.88
2023-04-28T04:49:23.656Z,16.88
2023-04-28T04:50:23.573Z,16.88
2023-04-28T04:51:23.556Z,16.88
2023-04-28T04:52:23.551Z,16.88
2023-04-28T04:53:23.586Z,16.88
2023-04-28T04:54:23.575Z,16.88
2023-04-28T04:55:23.600Z,16.88
2023-04-28T04:56:23.535Z,22.50
2023-04-28T04:57:23.534Z,22.50
2023-04-28T04:58:23.557Z,22.50
2023-04-28T04:59:23.528Z,22.50
2023-04-28T05:00:23.530Z,22.50
2023-04-28T05:01:23.557Z,22.50
2023-04-28T05:02:23.600Z,22.50
2023-04-28T05:03:23.583Z,22.50
2023-04-28T05:04:23.737Z,28.13
2023-04-28T05:05:23.812Z,28.13
2023-04-28T05:06:23.508Z,28.13
2023-04-28T05:07:23.507Z,28.13
2023-04-28T05:08:23.516Z,28.13
2023-04-28T05:09:23.522Z,28.13
2023-04-28T05:10:23.487Z,33.75
2023-04-28T05:11:23.503Z,33.75
2023-04-28T05:12:23.499Z,33.75
2023-04-28T05:13:25.502Z,33.75
2023-04-28T05:14:23.471Z,33.75
2023-04-28T05:15:23.480Z,33.75
2023-04-28T05:16:23.488Z,33.75
2023-04-28T05:17:23.486Z,33.75
2023-04-28T05:18:23.485Z,39.38
2023-04-28T05:19:23.493Z,39.38
2023-04-28T05:20:23.448Z,39.38
2023-04-28T05:21:23.457Z,39.38
2023-04-28T05:22:23.449Z,39.38
2023-04-28T05:23:23.456Z,33.75
2023-04-28T05:24:23.462Z,39.38
2023-04-28T05:25:23.445Z,39.38
2023-04-28T05:26:23.428Z,33.75
2023-04-28T05:27:23.432Z,39.38
2023-04-28T05:28:23.444Z,39.38
2023-04-28T05:29:23.427Z,33.75
2023-04-28T05:30:23.420Z,33.75
2023-04-28T05:31:23.485Z,33.75
2023-04-28T05:32:23.499Z,33.75
2023-04-28T05:33:23.422Z,33.75
2023-04-28T05:35:23.449Z,33.75
2023-04-28T05:36:23.417Z,33.75
2023-04-28T05:37:23.414Z,33.75
2023-04-28T05:38:23.574Z,33.75
2023-04-28T05:39:23.447Z,33.75
2023-04-28T05:40:23.426Z,33.75
2023-04-28T05:41:23.383Z,28.13
2023-04-28T05:42:23.404Z,28.13
2023-04-28T05:43:23.381Z,28.13
2023-04-28T05:44:23.443Z,28.13
2023-04-28T05:45:23.426Z,28.13
2023-04-28T05:46:30.544Z,28.13
2023-04-28T05:47:23.520Z,28.13
2023-04-28T05:48:23.361Z,28.13
2023-04-28T05:49:23.369Z,28.13
2023-04-28T05:50:23.377Z,28.13
2023-04-28T05:51:23.396Z,28.13
2023-04-28T05:52:23.497Z,28.13
2023-04-28T05:53:23.412Z,28.13
2023-04-28T05:54:23.526Z,33.75
2023-04-28T05:55:23.332Z,33.75
2023-04-28T05:56:23.361Z,33.75
2023-04-28T05:57:23.378Z,33.75
2023-04-28T05:58:23.472Z,33.75
2023-04-28T05:59:23.328Z,33.75
2023-04-28T06:00:23.351Z,33.75
2023-04-28T06:01:23.317Z,28.13
2023-04-28T06:02:24.541Z,28.13
2023-04-28T06:03:23.664Z,28.13
2023-04-28T06:04:23.908Z,28.13
2023-04-28T06:05:23.724Z,28.13
2023-04-28T06:06:23.435Z,28.13
2023-04-28T06:07:23.491Z,28.13
2023-04-28T06:08:23.370Z,28.13
2023-04-28T06:09:23.309Z,28.13
2023-04-28T06:10:23.289Z,28.13
2023-04-28T06:11:23.308Z,28.13
2023-04-28T06:12:23.292Z,28.13
2023-04-28T06:13:23.321Z,22.50
2023-04-28T06:14:23.325Z,22.50
2023-04-28T06:15:23.298Z,22.50
2023-04-28T06:16:23.591Z,22.50
2023-04-28T06:17:23.349Z,22.50
2023-04-28T06:18:23.296Z,22.50
2023-04-28T06:19:23.291Z,28.13
2023-04-28T06:20:23.271Z,28.13
2023-04-28T06:21:23.303Z,28.13
2023-04-28T06:22:23.301Z,33.75
2023-04-28T06:23:23.287Z,33.75
2023-04-28T06:24:23.245Z,33.75
2023-04-28T06:25:23.254Z,33.75
2023-04-28T06:26:23.247Z,33.75
2023-04-28T06:27:23.296Z,33.75
2023-04-28T06:30:55.886Z,33.75
2023-04-28T06:31:55.856Z,39.38
2023-04-28T06:34:23.512Z,39.38
2023-04-28T06:34:57.877Z,39.38
2023-04-28T06:35:55.937Z,39.38
2023-04-28T06:36:55.839Z,39.38
2023-04-28T06:37:55.942Z,39.38
2023-04-28T06:38:55.815Z,45.00
2023-04-28T06:39:56.002Z,45.00
2023-04-28T06:40:55.886Z,45.00
2023-04-28T06:41:55.830Z,45.00
2023-04-28T06:42:55.788Z,45.00
2023-04-28T06:43:55.841Z,45.00
2023-04-28T06:44:55.786Z,45.00
2023-04-28T06:45:55.802Z,39.38
2023-04-28T06:46:55.880Z,39.38
2023-04-28T06:47:55.925Z,39.38
2023-04-28T06:48:55.945Z,39.38
2023-04-28T06:49:55.776Z,39.38
2023-04-28T06:50:55.933Z,39.38
2023-04-28T06:51:55.862Z,45.00
2023-04-28T06:52:55.769Z,45.00
2023-04-28T06:53:55.835Z,50.63
2023-04-28T06:54:55.951Z,50.63
2023-04-28T06:55:55.790Z,50.63
2023-04-28T06:56:55.781Z,50.63
2023-04-28T06:57:55.765Z,50.63
2023-04-28T06:58:55.780Z,50.63
2023-04-28T06:59:55.744Z,50.63
2023-04-28T07:00:55.816Z,56.25
2023-04-28T07:01:55.741Z,56.25
2023-04-28T07:02:55.981Z,56.25
2023-04-28T07:03:55.902Z,56.25
2023-04-28T07:04:55.746Z,56.25
2023-04-28T07:05:55.719Z,56.25
2023-04-28T07:06:55.729Z,50.63
2023-04-28T07:07:55.732Z,50.63
2023-04-28T07:08:55.760Z,50.63
2023-04-28T07:09:57.423Z,50.63
2023-04-28T07:10:55.779Z,50.63
2023-04-28T07:11:55.711Z,50.63
2023-04-28T07:12:55.703Z,50.63
2023-04-28T07:13:55.741Z,56.25
2023-04-28T07:14:55.723Z,56.25
2023-04-28T07:15:55.770Z,56.25
2023-04-28T07:17:55.805Z,61.88
2023-04-28T07:18:55.764Z,61.88
2023-04-28T07:19:55.742Z,61.88
2023-04-28T07:21:56.434Z,61.88
2023-04-28T07:22:55.740Z,61.88
2023-04-28T07:23:55.735Z,61.88
2023-04-28T07:24:55.719Z,61.88
2023-04-28T07:25:55.677Z,67.50
2023-04-28T07:26:55.934Z,67.50
2023-04-28T07:27:55.668Z,61.88
2023-04-28T07:28:55.786Z,61.88
2023-04-28T07:29:55.697Z,61.88
2023-04-28T07:30:55.674Z,56.25
2023-04-28T07:31:55.749Z,50.63
2023-04-28T07:32:55.789Z,50.63
2023-04-28T07:33:55.727Z,50.63
2023-04-28T07:34:55.664Z,45.00
2023-04-28T07:35:55.672Z,45.00
2023-04-28T07:36:55.689Z,45.00
2023-04-28T07:37:55.678Z,45.00
2023-04-28T07:38:55.644Z,50.63
2023-04-28T07:39:55.673Z,50.63
2023-04-28T07:40:55.648Z,56.25
2023-04-28T07:41:55.760Z,56.25
2023-04-28T07:42:56.514Z,56.25
2023-04-28T07:43:55.698Z,61.88
2023-04-28T07:44:56.014Z,61.88
2023-04-28T07:45:55.678Z,61.88
2023-04-28T07:46:55.845Z,56.25
2023-04-28T07:47:55.776Z,56.25
2023-04-28T07:48:55.611Z,61.88
2023-04-28T07:49:55.665Z,61.88
2023-04-28T07:50:55.685Z,67.50
2023-04-28T07:51:55.645Z,73.13
2023-04-28T07:52:55.651Z,78.75
2023-04-28T07:53:55.649Z,84.38
2023-04-28T07:54:55.587Z,84.38
2023-04-28T07:55:55.810Z,90.00
2023-04-28T07:56:55.804Z,95.63
2023-04-28T07:57:55.711Z,95.63
2023-04-28T07:58:55.761Z,95.63
2023-04-28T07:59:55.673Z,95.63
2023-04-28T08:00:55.647Z,90.00
2023-04-28T08:01:55.797Z,90.00
2023-04-28T08:03:55.756Z,84.38
2023-04-28T08:04:56.115Z,84.38
2023-04-28T08:05:55.804Z,78.75
2023-04-28T08:06:55.553Z,78.75
2023-04-28T08:07:55.575Z,73.13
2023-04-28T08:08:55.574Z,67.50
2023-04-28T08:09:55.569Z,67.50
2023-04-28T08:10:55.568Z,67.50
2023-04-28T08:11:55.560Z,67.50
2023-04-28T08:12:55.590Z,67.50
2023-04-28T08:13:55.602Z,67.50
2023-04-28T08:14:55.592Z,67.50
2023-04-28T08:15:55.584Z,61.88
2023-04-28T08:16:55.563Z,61.88
2023-04-28T08:17:55.582Z,61.88
2023-04-28T08:18:55.562Z,61.88
2023-04-28T08:19:55.573Z,61.88
2023-04-28T08:20:55.539Z,56.25
2023-04-28T08:21:55.586Z,56.25
2023-04-28T08:22:55.606Z,50.63
2023-04-28T08:23:55.514Z,50.63
2023-04-28T08:24:55.588Z,45.00
2023-04-28T08:25:55.517Z,45.00
2023-04-28T08:26:55.538Z,45.00
2023-04-28T08:27:57.092Z,45.00
2023-04-28T08:28:55.537Z,50.63
2023-04-28T08:29:55.509Z,50.63
2023-04-28T08:30:55.553Z,50.63
2023-04-28T08:31:55.516Z,50.63
2023-04-28T08:32:55.528Z,50.63
2023-04-28T08:33:55.799Z,50.63
2023-04-28T08:34:55.532Z,45.00
2023-04-28T08:35:55.506Z,45.00
2023-04-28T08:36:55.567Z,45.00
2023-04-28T08:37:55.668Z,45.00
2023-04-28T08:38:55.534Z,39.38
2023-04-28T08:39:55.511Z,39.38
2023-04-28T08:40:55.479Z,39.38
2023-04-28T08:41:55.473Z,39.38
2023-04-28T08:42:55.528Z,39.38
2023-04-28T08:43:55.501Z,39.38
2023-04-28T08:44:55.498Z,39.38
2023-04-28T08:45:55.478Z,39.38
2023-04-28T08:46:55.611Z,45.00
2023-04-28T08:47:55.647Z,45.00
2023-04-28T08:48:55.488Z,45.00
2023-04-28T08:49:55.504Z,45.00
2023-04-28T08:50:55.506Z,50.63
2023-04-28T08:51:55.462Z,50.63
2023-04-28T08:52:55.543Z,50.63
2023-04-28T08:54:55.503Z,50.63
2023-04-28T08:55:55.476Z,50.63
2023-04-28T08:56:55.527Z,56.25
2023-04-28T08:57:55.452Z,56.25
2023-04-28T08:58:55.434Z,56.25
2023-04-28T08:59:55.482Z,56.25
2023-04-28T09:00:55.462Z,56.25
2023-04-28T09:01:55.497Z,56.25
2023-04-28T09:02:55.644Z,56.25
2023-04-28T09:03:55.496Z,56.25
2023-04-28T09:04:55.924Z,56.25
2023-04-28T09:08:52.606Z,78.75
2023-04-28T09:09:52.565Z,84.38
2023-04-28T09:10:52.569Z,90.00
2023-04-28T09:11:52.552Z,95.63
2023-04-28T09:12:52.568Z,101.25
2023-04-28T09:13:52.560Z,106.88
2023-04-28T09:14:53.276Z,112.50
2023-04-28T09:15:52.535Z,112.50
2023-04-28T09:16:52.770Z,118.13
2023-04-28T09:17:52.684Z,123.75
2023-04-28T09:18:52.614Z,129.38
2023-04-28T09:19:52.592Z,135.00
2023-04-28T09:20:52.533Z,146.25
2023-04-28T09:21:52.551Z,151.88
2023-04-28T09:22:52.568Z,157.50
2023-04-28T09:23:52.559Z,163.13
2023-04-28T09:24:52.618Z,168.75
2023-04-28T09:25:52.532Z,174.38
2023-04-28T09:26:55.430Z,174.38
2023-04-28T09:27:52.591Z,174.38
2023-04-28T09:28:52.532Z,174.38
2023-04-28T09:29:52.574Z,163.13
2023-04-28T09:30:52.629Z,157.50
2023-04-28T09:31:52.675Z,146.25
2023-04-28T09:32:52.589Z,135.00
2023-04-28T09:33:54.648Z,129.38
2023-04-28T09:34:52.620Z,123.75
2023-04-28T09:35:52.656Z,118.13
2023-04-28T09:36:52.587Z,112.50
2023-04-28T09:37:52.582Z,112.50
2023-04-28T09:38:52.568Z,106.88
2023-04-28T09:39:52.526Z,106.88
2023-04-28T09:40:52.500Z,101.25
2023-04-28T09:41:52.563Z,95.63
2023-04-28T09:42:52.543Z,95.63
2023-04-28T09:43:53.335Z,95.63
2023-04-28T09:44:52.533Z,90.00
2023-04-28T09:45:53.726Z,90.00
2023-04-28T09:46:52.608Z,84.38
2023-04-28T09:47:52.546Z,84.38
2023-04-28T09:48:52.597Z,84.38
2023-04-28T09:49:52.483Z,78.75
2023-04-28T09:50:52.512Z,78.75
2023-04-28T09:51:52.493Z,78.75
2023-04-28T09:52:52.509Z,73.13
2023-04-28T09:53:52.544Z,73.13
2023-04-28T09:54:52.576Z,73.13
2023-04-28T09:55:52.484Z,78.75
2023-04-28T09:56:52.492Z,78.75
2023-04-28T09:57:52.498Z,73.13
2023-04-28T09:58:52.484Z,73.13
2023-04-28T09:59:52.480Z,73.13
2023-04-28T10:00:52.589Z,73.13
2023-04-28T10:12:45.286Z,73.13
2023-04-28T10:13:45.264Z,78.75
2023-04-28T10:14:45.475Z,78.75
2023-04-28T10:15:46.165Z,78.75
2023-04-28T10:16:45.238Z,78.75
2023-04-28T10:17:45.266Z,78.75
2023-04-28T10:18:45.234Z,78.75
2023-04-28T10:19:45.233Z,73.13
2023-04-28T10:20:45.206Z,73.13
2023-04-28T10:21:46.224Z,73.13
2023-04-28T10:22:45.211Z,73.13
2023-04-28T10:23:45.187Z,73.13
2023-04-28T10:24:45.210Z,78.75
2023-04-28T10:25:45.213Z,78.75
2023-04-28T10:26:45.226Z,84.38
2023-04-28T10:27:45.192Z,90.00
2023-04-28T10:28:45.259Z,90.00
2023-04-28T10:29:45.196Z,84.38
2023-04-28T10:30:45.205Z,84.38
2023-04-28T10:31:45.286Z,84.38
2023-04-28T10:32:45.649Z,84.38
2023-04-28T10:33:45.277Z,90.00
2023-04-28T10:34:45.226Z,90.00
2023-04-28T10:35:45.249Z,95.63
2023-04-28T10:36:45.262Z,101.25
2023-04-28T10:37:45.162Z,106.88
2023-04-28T10:38:45.173Z,106.88
2023-04-28T10:39:45.220Z,101.25
2023-04-28T10:40:45.390Z,101.25
2023-04-28T10:41:45.156Z,106.88
2023-04-28T10:42:45.149Z,106.88
2023-04-28T10:43:45.143Z,106.88
2023-04-28T10:44:45.165Z,112.50
2023-04-28T10:45:45.157Z,112.50
2023-04-28T10:46:45.304Z,118.13
2023-04-28T10:47:45.694Z,112.50
2023-04-28T10:48:45.152Z,112.50
2023-04-28T10:49:45.151Z,112.50
2023-04-28T10:50:45.184Z,123.75
2023-04-28T10:51:45.161Z,146.25
2023-04-28T10:52:45.179Z,168.75
2023-04-28T10:53:45.489Z,185.63
2023-04-28T10:54:45.176Z,196.88
2023-04-28T10:55:45.133Z,208.13
2023-04-28T10:56:45.129Z,219.38
2023-04-28T10:57:45.144Z,230.63
2023-04-28T10:58:45.180Z,225.00
2023-04-28T10:59:45.192Z,236.25
2023-04-28T11:00:45.297Z,219.38
2023-04-28T11:01:45.174Z,225.00
2023-04-28T11:02:45.340Z,236.25
2023-04-28T11:03:45.471Z,247.50
2023-04-28T11:04:45.395Z,258.75
2023-04-28T11:05:45.099Z,253.13
2023-04-28T11:06:45.139Z,258.75
2023-04-28T11:07:45.191Z,253.13
2023-04-28T11:08:45.102Z,241.88
2023-04-28T11:09:45.130Z,241.88
2023-04-28T11:10:45.115Z,270.00
2023-04-28T11:11:45.110Z,275.63
2023-04-28T11:12:45.224Z,264.38
2023-04-28T11:13:45.233Z,270.00
2023-04-28T11:14:45.134Z,320.63
2023-04-28T11:15:45.212Z,360.00
2023-04-28T11:16:45.315Z,303.75
2023-04-28T11:17:45.120Z,286.88
2023-04-28T11:18:45.132Z,343.13
2023-04-28T11:19:45.115Z,354.38
2023-04-28T11:20:45.111Z,365.63
2023-04-28T11:21:45.108Z,393.75
2023-04-28T11:22:45.095Z,337.50
2023-04-28T11:23:45.082Z,281.25
2023-04-28T11:24:45.121Z,264.38
2023-04-28T11:25:45.098Z,275.63
2023-04-28T11:26:45.096Z,286.88
2023-04-28T11:28:06.181Z,298.13
2023-04-28T11:28:45.082Z,331.88
2023-04-28T11:29:45.103Z,331.88
2023-04-28T11:30:45.129Z,320.63
2023-04-28T11:31:45.133Z,331.88
2023-04-28T11:32:45.150Z,371.25
2023-04-28T11:33:45.075Z,292.50
2023-04-28T11:34:45.172Z,309.38
2023-04-28T11:35:45.147Z,309.38
2023-04-28T11:36:45.093Z,337.50
2023-04-28T11:37:45.086Z,331.88
2023-04-28T11:38:45.101Z,371.25
2023-04-28T11:39:45.105Z,410.63
2023-04-28T11:40:45.087Z,382.50
2023-04-28T11:41:45.107Z,309.38
2023-04-28T11:42:45.088Z,309.38
2023-04-28T11:43:47.436Z,326.25
2023-04-28T11:44:45.108Z,348.75
2023-04-28T11:45:45.113Z,388.13
2023-04-28T11:46:45.112Z,376.88
2023-04-28T11:47:45.158Z,320.63
2023-04-28T11:48:45.141Z,354.38
2023-04-28T11:49:45.140Z,337.50
2023-04-28T11:50:45.132Z,416.25
2023-04-28T11:51:45.108Z,416.25
2023-04-28T11:52:45.146Z,275.63
2023-04-28T11:53:45.107Z,309.38
2023-04-28T11:54:45.115Z,320.63
2023-04-28T11:55:45.123Z,331.88
2023-04-28T11:56:45.130Z,303.75
2023-04-28T11:57:45.137Z,388.13
2023-04-28T11:58:45.173Z,241.88
2023-04-28T11:59:45.292Z,180.00
2023-04-28T12:00:45.129Z,163.13
2023-04-28T12:01:45.143Z,157.50
2023-04-28T12:02:45.370Z,163.13
2023-04-28T12:03:45.226Z,180.00
2023-04-28T12:04:45.197Z,219.38
2023-04-28T12:05:45.158Z,225.00
2023-04-28T12:06:45.135Z,213.75
2023-04-28T12:07:45.162Z,191.25
2023-04-28T12:08:45.145Z,191.25
2023-04-28T12:09:45.461Z,191.25
2023-04-28T12:10:45.190Z,185.63
2023-04-28T12:11:45.182Z,191.25
2023-04-28T12:12:52.052Z,185.63
2023-04-28T12:13:45.143Z,157.50
2023-04-28T12:14:45.175Z,140.63
2023-04-28T12:15:45.147Z,123.75
2023-04-28T12:16:45.188Z,123.75
2023-04-28T12:17:45.180Z,151.88
2023-04-28T12:18:45.165Z,196.88
2023-04-28T12:19:45.166Z,123.75
2023-04-28T12:20:45.195Z,112.50
2023-04-28T12:21:45.161Z,106.88
2023-04-28T12:22:45.149Z,101.25
2023-04-28T12:23:45.242Z,95.63
2023-04-28T12:24:45.162Z,90.00
2023-04-28T12:25:45.231Z,90.00
2023-04-28T12:26:45.163Z,95.63
2023-04-28T12:27:45.164Z,101.25
2023-04-28T12:28:45.179Z,101.25
2023-04-28T12:29:45.838Z,106.88
2023-04-28T12:30:45.159Z,106.88
2023-04-28T12:31:45.228Z,106.88
2023-04-28T12:32:45.198Z,112.50
2023-04-28T12:33:45.164Z,118.13
2023-04-28T12:34:45.162Z,123.75
2023-04-28T12:35:45.200Z,129.38
2023-04-28T12:36:45.180Z,135.00
2023-04-28T12:37:45.195Z,135.00
2023-04-28T12:38:45.165Z,129.38
2023-04-28T12:39:45.610Z,129.38
2023-04-28T12:40:45.165Z,135.00
2023-04-28T12:41:45.217Z,129.38
2023-04-28T12:42:45.187Z,129.38
2023-04-28T12:43:45.185Z,129.38
2023-04-28T12:44:45.171Z,123.75
2023-04-28T12:45:45.199Z,118.13
2023-04-28T12:46:45.248Z,118.13
2023-04-28T12:47:45.276Z,123.75
2023-04-28T12:48:45.192Z,123.75
2023-04-28T12:49:45.391Z,118.13
2023-04-28T12:50:45.159Z,112.50
2023-04-28T12:51:45.169Z,106.88
2023-04-28T12:52:45.186Z,101.25
2023-04-28T12:53:45.154Z,95.63
2023-04-28T12:54:45.177Z,101.25
2023-04-28T12:55:45.179Z,101.25
2023-04-28T12:56:45.181Z,95.63
2023-04-28T12:57:45.163Z,90.00
2023-04-28T12:58:45.176Z,95.63
2023-04-28T12:59:45.385Z,95.63
2023-04-28T13:00:45.212Z,90.00
2023-04-28T13:01:45.363Z,90.00
2023-04-28T13:04:17.979Z,95.63
2023-04-28T13:05:17.694Z,101.25
2023-04-28T13:06:17.702Z,106.88
2023-04-28T13:07:17.710Z,106.88
2023-04-28T13:08:17.739Z,112.50
2023-04-28T13:09:17.671Z,118.13
2023-04-28T13:10:17.706Z,118.13
2023-04-28T13:11:22.910Z,123.75
2023-04-28T13:12:17.674Z,123.75
2023-04-28T13:13:17.676Z,123.75
2023-04-28T13:14:17.674Z,118.13
2023-04-28T13:15:17.728Z,118.13
2023-04-28T13:16:17.782Z,118.13
2023-04-28T13:17:17.690Z,118.13
2023-04-28T13:18:17.701Z,123.75
2023-04-28T13:19:17.701Z,135.00
2023-04-28T13:20:17.667Z,146.25
2023-04-28T13:21:17.699Z,163.13
2023-04-28T13:22:17.660Z,174.38
2023-04-28T13:23:17.661Z,185.63
2023-04-28T13:24:17.671Z,174.38
2023-04-28T13:25:17.672Z,168.75
2023-04-28T13:26:17.661Z,163.13
2023-04-28T13:27:17.664Z,151.88
2023-04-28T13:28:17.657Z,146.25
2023-04-28T13:29:17.649Z,140.63
2023-04-28T13:30:17.680Z,118.13
2023-04-28T13:31:17.709Z,101.25
2023-04-28T13:32:17.670Z,90.00
2023-04-28T13:33:17.659Z,84.38
2023-04-28T13:34:17.689Z,90.00
2023-04-28T13:35:17.661Z,84.38
2023-04-28T13:36:17.658Z,78.75
2023-04-28T13:37:17.650Z,78.75
2023-04-28T13:38:17.647Z,84.38
2023-04-28T13:39:17.645Z,95.63
2023-04-28T13:40:17.654Z,101.25
2023-04-28T13:41:17.650Z,106.88
2023-04-28T13:42:17.665Z,118.13
2023-04-28T13:43:17.644Z,146.25
2023-04-28T13:44:17.663Z,213.75
2023-04-28T13:45:18.012Z,281.25
2023-04-28T13:46:17.805Z,286.88
2023-04-28T13:47:17.646Z,337.50
2023-04-28T13:48:17.643Z,337.50
2023-04-28T13:49:17.622Z,253.13
2023-04-28T13:50:17.620Z,213.75
2023-04-28T13:51:17.646Z,230.63
2023-04-28T13:52:17.648Z,185.63
2023-04-28T13:53:17.622Z,163.13
2023-04-28T13:54:17.625Z,157.50
2023-04-28T13:55:17.642Z,168.75
2023-04-28T13:56:17.686Z,168.75
2023-04-28T13:57:17.613Z,157.50
2023-04-28T13:58:17.619Z,140.63
2023-04-28T13:59:17.611Z,129.38
2023-04-28T14:00:17.627Z,123.75
2023-04-28T14:01:17.741Z,123.75
2023-04-28T14:02:17.695Z,112.50
2023-04-28T14:03:17.781Z,95.63
2023-04-28T14:04:17.947Z,90.00
2023-04-28T14:05:17.638Z,84.38
2023-04-28T14:06:17.615Z,84.38
2023-04-28T14:07:17.645Z,84.38
2023-04-28T14:08:20.040Z,90.00
2023-04-28T14:09:17.637Z,90.00
2023-04-28T14:10:17.599Z,90.00
2023-04-28T14:11:17.677Z,95.63
2023-04-28T14:12:17.614Z,106.88
2023-04-28T14:13:17.606Z,101.25
2023-04-28T14:14:17.595Z,90.00
2023-04-28T14:15:17.607Z,73.13
2023-04-28T14:16:17.667Z,61.88
2023-04-28T14:17:17.597Z,56.25
2023-04-28T14:18:17.587Z,50.63
2023-04-28T14:19:17.618Z,45.00
2023-04-28T14:20:17.598Z,45.00
2023-04-28T14:21:17.611Z,45.00
2023-04-28T14:22:17.586Z,45.00
2023-04-28T14:23:17.585Z,50.63
2023-04-28T14:24:17.591Z,45.00
2023-04-28T14:25:17.623Z,45.00
2023-04-28T14:26:17.598Z,45.00
2023-04-28T14:27:17.620Z,45.00
2023-04-28T14:28:17.640Z,45.00
2023-04-28T14:29:17.572Z,45.00
2023-04-28T14:30:17.600Z,45.00
2023-04-28T14:32:17.613Z,45.00
2023-04-28T14:33:17.609Z,45.00
2023-04-28T14:34:17.576Z,39.38
2023-04-28T14:35:17.561Z,39.38
2023-04-28T14:36:17.571Z,33.75
2023-04-28T14:37:17.614Z,33.75
2023-04-28T14:38:17.565Z,33.75
2023-04-28T14:39:17.565Z,33.75
2023-04-28T14:40:17.607Z,33.75
2023-04-28T14:41:17.578Z,28.13
2023-04-28T14:42:17.563Z,33.75
2023-04-28T14:43:17.555Z,39.38
2023-04-28T14:44:17.572Z,39.38
2023-04-28T14:45:17.551Z,45.00
2023-04-28T14:46:17.614Z,45.00
2023-04-28T14:47:17.564Z,39.38
2023-04-28T14:48:17.555Z,33.75
2023-04-28T14:49:17.538Z,28.13
2023-04-28T14:50:17.542Z,28.13
2023-04-28T14:51:17.559Z,22.50
2023-04-28T14:52:17.540Z,22.50
2023-04-28T14:53:17.540Z,22.50
2023-04-28T14:54:17.577Z,22.50
2023-04-28T14:55:17.548Z,22.50
2023-04-28T14:56:19.200Z,22.50
2023-04-28T14:57:17.536Z,22.50
2023-04-28T14:58:17.538Z,22.50
2023-04-28T14:59:17.514Z,22.50
2023-04-28T15:00:17.530Z,22.50
2023-04-28T15:01:17.646Z,22.50
2023-04-28T15:02:17.602Z,22.50
2023-04-28T15:03:17.664Z,22.50
2023-04-28T15:04:17.670Z,28.13
2023-04-28T15:05:17.506Z,28.13
2023-04-28T15:06:17.515Z,22.50
2023-04-28T15:07:17.501Z,28.13
2023-04-28T15:08:17.497Z,28.13
2023-04-28T15:09:17.503Z,28.13
2023-04-28T15:10:17.538Z,28.13
2023-04-28T15:11:18.508Z,28.13
2023-04-28T15:12:17.561Z,28.13
2023-04-28T15:13:17.492Z,28.13
2023-04-28T15:14:17.482Z,28.13
2023-04-28T15:15:17.500Z,28.13
2023-04-28T15:16:17.568Z,33.75
2023-04-28T15:17:17.482Z,39.38
2023-04-28T15:18:17.495Z,39.38
2023-04-28T15:19:17.466Z,33.75
2023-04-28T15:20:17.482Z,28.13
2023-04-28T15:21:17.467Z,28.13
2023-04-28T15:22:17.477Z,28.13
2023-04-28T15:23:17.464Z,28.13
2023-04-28T15:24:17.500Z,28.13
2023-04-28T15:25:17.460Z,33.75
2023-04-28T15:26:17.460Z,39.38
2023-04-28T15:27:17.477Z,39.38
2023-04-28T15:28:17.457Z,45.00
2023-04-28T15:29:17.474Z,45.00
2023-04-28T15:30:17.438Z,45.00
2023-04-28T15:31:17.477Z,45.00
2023-04-28T15:32:17.475Z,39.38
2023-04-28T15:33:17.699Z,33.75
2023-04-28T15:34:17.454Z,28.13
2023-04-28T15:35:17.430Z,28.13
2023-04-28T15:36:17.431Z,28.13
2023-04-28T15:37:17.435Z,22.50
2023-04-28T15:38:17.487Z,22.50
2023-04-28T15:39:17.417Z,22.50
2023-04-28T15:40:17.423Z,22.50
2023-04-28T15:41:17.402Z,22.50
2023-04-28T15:42:17.410Z,22.50
2023-04-28T15:43:17.398Z,22.50
2023-04-28T15:44:17.408Z,28.13
2023-04-28T15:45:17.395Z,33.75
2023-04-28T15:46:17.572Z,45.00
2023-04-28T15:47:17.398Z,45.00
2023-04-28T15:48:17.415Z,39.38
2023-04-28T15:49:17.399Z,33.75
2023-04-28T15:50:19.295Z,28.13
2023-04-28T15:51:17.396Z,28.13
2023-04-28T15:52:17.377Z,28.13
2023-04-28T15:53:17.391Z,22.50
2023-04-28T15:54:17.380Z,16.88
2023-04-28T15:55:17.390Z,16.88
2023-04-28T15:56:18.916Z,16.88
2023-04-28T15:57:17.367Z,11.25
2023-04-28T15:58:17.398Z,11.25
2023-04-28T15:59:17.364Z,11.25
2023-04-28T16:00:17.389Z,11.25
2023-04-28T16:11:52.904Z,16.88
2023-04-28T16:12:52.735Z,22.50
2023-04-28T16:13:52.710Z,22.50
2023-04-28T16:14:52.877Z,22.50
2023-04-28T16:15:52.680Z,22.50
2023-04-28T16:16:52.738Z,22.50
2023-04-28T16:17:52.760Z,22.50
2023-04-28T16:18:52.671Z,28.13
2023-04-28T16:19:52.685Z,28.13
2023-04-28T16:20:52.683Z,28.13
2023-04-28T16:21:52.676Z,22.50
2023-04-28T16:22:52.656Z,22.50
2023-04-28T16:23:52.695Z,22.50
2023-04-28T16:24:52.663Z,28.13
2023-04-28T16:25:52.647Z,33.75
2023-04-28T16:26:52.630Z,28.13
2023-04-28T16:27:52.649Z,28.13
2023-04-28T16:28:52.636Z,28.13
2023-04-28T16:29:52.623Z,22.50
2023-04-28T16:30:52.665Z,22.50
2023-04-28T16:31:52.788Z,28.13
2023-04-28T16:32:52.675Z,28.13
2023-04-28T16:33:52.647Z,28.13
2023-04-28T16:34:52.870Z,28.13
2023-04-28T16:35:52.654Z,28.13
2023-04-28T16:36:52.594Z,22.50
2023-04-28T16:37:52.594Z,22.50
2023-04-28T16:38:52.602Z,22.50
2023-04-28T16:39:52.780Z,16.88
2023-04-28T16:40:52.590Z,16.88
2023-04-28T16:41:52.590Z,16.88
2023-04-28T16:42:52.595Z,16.88
2023-04-28T16:43:52.624Z,16.88
2023-04-28T16:44:53.015Z,16.88
2023-04-28T16:45:52.657Z,11.25
2023-04-28T16:46:52.576Z,11.25
2023-04-28T16:47:52.648Z,11.25
2023-04-28T16:48:52.578Z,11.25
2023-04-28T16:49:52.791Z,11.25
2023-04-28T16:50:52.546Z,5.63
2023-04-28T16:51:52.554Z,5.63
2023-04-28T16:52:52.551Z,5.63
2023-04-28T16:53:52.658Z,0.00
2023-04-28T16:54:52.581Z,0.00
2023-04-28T16:55:52.557Z,0.00
2023-04-28T16:56:52.532Z,5.63
2023-04-28T16:57:52.531Z,5.63
2023-04-28T16:58:52.527Z,5.63
2023-04-28T16:59:52.780Z,5.63
2023-04-28T17:00:52.547Z,5.63
2023-04-28T17:01:52.591Z,5.63
2023-04-28T17:02:52.788Z,5.63
2023-04-28T17:03:52.721Z,5.63
2023-04-28T17:04:52.516Z,5.63
2023-04-28T17:05:52.522Z,5.63
2023-04-28T17:06:52.505Z,5.63
2023-04-28T17:07:52.501Z,5.63
2023-04-28T17:08:52.490Z,5.63
2023-04-28T17:09:52.877Z,5.63
2023-04-28T17:10:52.504Z,5.63
2023-04-28T17:11:52.492Z,5.63
2023-04-28T17:12:52.491Z,0.00
2023-04-28T17:13:52.489Z,0.00
2023-04-28T17:14:52.469Z,0.00
2023-04-28T17:15:52.506Z,5.63
2023-04-28T17:16:52.498Z,5.63
2023-04-28T17:17:52.528Z,5.63
2023-04-28T17:18:52.452Z,5.63
2023-04-28T17:19:52.549Z,5.63
2023-04-28T17:20:52.459Z,11.25